Main page
METAR-TAF:

METAR-TAF

Airports :

Šiauliai International Airport

Šiauliai, Lithuania

latitude: 55-53-38N, longitude: 023-23-42E, elevation: 135 m

Current weather observation

The report was made 31 minutes ago, at 09:50 UTC
Wind 9 kt from the East/Northeast
Temperature 3°C
Humidity 87%
Pressure 1033 hPa
Visibility 10 km or more
Overcast at a height of 900 ft

METAR: EYSA 190950Z 06009KT 9999 OVC009 03/01 Q1033 R32R/09//95 GRN NOSIG

Time: 12:21 (10:21 UTC)

Forecast

The report was made 2 hours and 14 minutes ago, at 08:07 UTC
Forecast valid from 19 at 09 UTC to 19 at 18 UTC
Wind 10 kt from the East/Northeast
Visibility: 8000 m
Overcast at a height of 1000 ft

TAF: EYSA 190807Z 1909/1918 06010KT 8000 OVC010

Weather observations and forecasts of more than 4000 airports (METAR and TAF reports).

The available stations are represented by yellow and red dots on the map.

Hover mouse over dot to see the name of the station.

Then click to see weather observations and forecasts.

To change the map : click on the green buttons with a black cross to zoom in, on the green button with a dash to zoom out, or on the green arrows for adjacent maps.


METAR-TAF: